Time;durP1;ratioP1;P1;durP2;ratioP2;P2;SDS_P1;SDS_P2;PMS_P1;PMS_P2;Temp;Humidity;BMP_temperature;BMP_pressure;BME280_temperature;BME280_humidity;BME280_pressure;Samples;Min_cycle;Max_cycle;Signal;HPM_P1;HPM_P2
2021/12/01 00:01:29;;;;;;;1.70;1.60;;;2.50;99.90;;;;;;4986584;28;20276;-63
2021/12/01 00:03:54;;;;;;;2.00;1.80;;;2.50;99.90;;;;;;5012877;22;20886;-60
2021/12/01 00:06:20;;;;;;;1.83;1.73;;;2.50;99.90;;;;;;4987731;28;20412;-62
2021/12/01 00:08:46;;;;;;;1.70;1.60;;;2.50;99.90;;;;;;4987227;28;20917;-61
2021/12/01 00:11:11;;;;;;;1.90;1.80;;;2.50;99.90;;;;;;4988308;28;20178;-61
2021/12/01 00:13:37;;;;;;;1.87;1.77;;;2.50;99.90;;;;;;4988861;28;20200;-60
2021/12/01 00:16:03;;;;;;;2.20;2.00;;;2.50;99.90;;;;;;4987345;28;20693;-60
2021/12/01 00:18:29;;;;;;;4.13;2.13;;;2.50;99.90;;;;;;4986767;28;20279;-61
2021/12/01 00:20:56;;;;;;;2.50;2.30;;;2.60;99.90;;;;;;4984797;28;20434;-61
2021/12/01 00:23:22;;;;;;;2.20;2.00;;;2.60;99.90;;;;;;4984812;28;20487;-62
2021/12/01 00:25:49;;;;;;;2.10;1.93;;;2.60;99.90;;;;;;4987185;28;20804;-61
2021/12/01 00:28:14;;;;;;;2.50;2.30;;;2.50;99.90;;;;;;4986082;28;20452;-62
2021/12/01 00:30:41;;;;;;;3.20;2.40;;;2.50;99.90;;;;;;4985080;28;20422;-61
2021/12/01 00:33:10;;;;;;;2.33;2.13;;;2.50;99.90;;;;;;4988057;28;20439;-60
2021/12/01 00:35:36;;;;;;;2.23;2.13;;;2.50;99.90;;;;;;4986844;28;20461;-61
2021/12/01 00:38:01;;;;;;;2.47;2.13;;;2.60;99.90;;;;;;4984366;28;20476;-61
2021/12/01 00:40:27;;;;;;;2.60;2.40;;;2.60;99.90;;;;;;4988197;28;20169;-62
2021/12/01 00:42:53;;;;;;;2.83;2.63;;;2.60;99.90;;;;;;4985263;28;20204;-61
2021/12/01 00:45:22;;;;;;;3.00;2.30;;;2.60;99.90;;;;;;4970194;28;21136;-61
2021/12/01 00:47:50;;;;;;;2.93;2.60;;;2.60;99.90;;;;;;4986500;28;20424;-61
2021/12/01 00:50:30;;;;;;;2.80;2.60;;;2.60;99.90;;;;;;4984539;28;20432;-62
2021/12/01 00:53:00;;;;;;;3.57;2.63;;;2.60;99.90;;;;;;4987385;28;20455;-60
2021/12/01 00:55:26;;;;;;;3.60;2.57;;;2.60;99.90;;;;;;4986844;28;20434;-60
2021/12/01 00:57:53;;;;;;;2.90;2.70;;;2.60;99.90;;;;;;4982269;28;20459;-60
2021/12/01 01:00:25;;;;;;;3.00;2.70;;;2.60;99.90;;;;;;4987190;28;20912;-61
2021/12/01 01:02:51;;;;;;;2.47;2.27;;;2.60;99.90;;;;;;4987712;28;20990;-60
2021/12/01 01:05:17;;;;;;;3.37;2.80;;;2.60;99.90;;;;;;4988618;28;20419;-60
2021/12/01 01:07:43;;;;;;;2.60;2.40;;;2.60;99.90;;;;;;4985336;28;20440;-61
2021/12/01 01:18:31;;;;;;;3.47;2.57;;;2.70;99.90;;;;;;4988787;28;20470;-61
2021/12/01 01:20:57;;;;;;;2.93;2.73;;;2.70;99.90;;;;;;4986848;28;20984;-60
2021/12/01 01:23:24;;;;;;;2.80;2.60;;;2.70;99.90;;;;;;4990794;28;20470;-61
2021/12/01 01:25:50;;;;;;;3.00;2.50;;;2.70;99.90;;;;;;4990980;28;21092;-61
2021/12/01 01:28:16;;;;;;;2.70;2.53;;;2.70;99.90;;;;;;4988329;28;20473;-61
2021/12/01 01:30:42;;;;;;;2.63;2.43;;;2.70;99.90;;;;;;4988428;28;20264;-62
2021/12/01 01:33:07;;;;;;;2.70;2.50;;;2.70;99.90;;;;;;4989640;28;20679;-60
2021/12/01 01:35:33;;;;;;;2.73;2.53;;;2.70;99.90;;;;;;4987899;28;20515;-59
2021/12/01 01:37:59;;;;;;;4.73;3.00;;;2.70;99.90;;;;;;4989561;28;20428;-61
2021/12/01 01:40:24;;;;;;;2.77;2.57;;;2.70;99.90;;;;;;4987666;28;20207;-60
2021/12/01 01:42:50;;;;;;;2.83;2.63;;;2.70;99.90;;;;;;4990154;28;20308;-62
2021/12/01 01:45:17;;;;;;;2.47;2.27;;;2.70;99.90;;;;;;4990584;28;20219;-60
2021/12/01 01:47:59;;;;;;;3.40;2.60;;;2.70;99.90;;;;;;4993324;28;20252;-63
2021/12/01 01:50:37;;;;;;;3.10;2.37;;;2.70;99.90;;;;;;5007194;28;20441;-61
2021/12/01 01:53:07;;;;;;;2.77;2.57;;;2.70;99.90;;;;;;5008005;28;20455;-61
2021/12/01 01:55:34;;;;;;;2.87;2.57;;;2.70;99.90;;;;;;4989920;28;20431;-64
2021/12/01 01:58:00;;;;;;;2.70;2.50;;;2.70;99.90;;;;;;4988797;28;20451;-61
2021/12/01 02:00:27;;;;;;;3.80;2.20;;;2.70;99.90;;;;;;4985718;28;20446;-60
2021/12/01 02:02:55;;;;;;;2.80;2.40;;;2.70;99.90;;;;;;4989893;28;20468;-61
2021/12/01 02:05:21;;;;;;;2.37;2.17;;;2.70;99.90;;;;;;4987958;28;20432;-61
2021/12/01 02:07:48;;;;;;;3.00;2.30;;;2.80;99.90;;;;;;4989617;28;20431;-61
2021/12/01 02:10:14;;;;;;;2.30;2.10;;;2.80;99.90;;;;;;4981030;28;20487;-60
2021/12/01 02:12:40;;;;;;;1.80;1.70;;;2.80;99.90;;;;;;4988100;28;20493;-60
2021/12/01 02:15:08;;;;;;;1.87;1.77;;;2.80;99.90;;;;;;4988501;28;21174;-61
2021/12/01 02:17:34;;;;;;;1.60;1.50;;;2.80;99.90;;;;;;4987736;28;20265;-60
2021/12/01 02:20:00;;;;;;;1.80;1.70;;;2.80;99.90;;;;;;4989229;28;20543;-60
2021/12/01 02:22:26;;;;;;;2.03;1.93;;;2.80;99.90;;;;;;4987003;28;20516;-61
2021/12/01 02:24:52;;;;;;;1.60;1.50;;;2.80;99.90;;;;;;4987395;28;20177;-61
2021/12/01 02:27:18;;;;;;;1.70;1.60;;;2.80;99.90;;;;;;4989679;28;21069;-60
2021/12/01 02:29:43;;;;;;;1.77;1.67;;;2.90;99.90;;;;;;4986405;28;20228;-59
2021/12/01 02:32:09;;;;;;;1.80;1.70;;;2.90;99.90;;;;;;4986825;28;20180;-61
2021/12/01 02:34:36;;;;;;;1.80;1.70;;;2.90;99.90;;;;;;4990006;28;20177;-60
2021/12/01 02:37:02;;;;;;;1.83;1.73;;;2.90;99.90;;;;;;4990839;28;20530;-60
2021/12/01 02:39:32;;;;;;;1.87;1.77;;;2.90;99.90;;;;;;4989719;28;20416;-60
2021/12/01 02:42:07;;;;;;;3.17;1.90;;;2.90;99.90;;;;;;5001998;28;20670;-60
2021/12/01 02:44:34;;;;;;;2.27;1.73;;;2.90;99.90;;;;;;5003090;28;20423;-60
2021/12/01 02:47:00;;;;;;;1.60;1.50;;;3.00;99.90;;;;;;4989776;28;20439;-60
2021/12/01 02:49:27;;;;;;;1.73;1.60;;;3.00;99.90;;;;;;4988131;28;20496;-60
2021/12/01 02:51:54;;;;;;;2.00;1.90;;;3.00;99.90;;;;;;4989434;28;20783;-60
2021/12/01 02:54:20;;;;;;;2.33;2.13;;;3.00;99.90;;;;;;4982770;28;20407;-60
2021/12/01 02:56:51;;;;;;;1.80;1.70;;;3.00;99.90;;;;;;4986294;28;20430;-60
2021/12/01 02:59:17;;;;;;;2.40;2.20;;;3.00;99.90;;;;;;5002719;28;20436;-60
2021/12/01 03:01:44;;;;;;;2.37;2.17;;;3.10;99.90;;;;;;4970490;28;20461;-60
2021/12/01 03:04:10;;;;;;;1.70;1.60;;;3.10;99.90;;;;;;4987692;28;20504;-61
2021/12/01 03:06:36;;;;;;;1.90;1.70;;;3.10;99.90;;;;;;4987347;28;20441;-60
2021/12/01 03:09:05;;;;;;;1.50;1.40;;;3.10;99.90;;;;;;4989098;28;20460;-61
2021/12/01 03:11:31;;;;;;;2.00;1.80;;;3.10;99.90;;;;;;4986305;28;20725;-62
2021/12/01 03:13:57;;;;;;;2.70;1.87;;;3.10;99.90;;;;;;4988030;28;20542;-61
2021/12/01 03:16:24;;;;;;;1.87;1.77;;;3.10;99.90;;;;;;4986008;28;20434;-62
2021/12/01 03:18:50;;;;;;;1.90;1.80;;;3.10;99.90;;;;;;4988299;28;20765;-61
2021/12/01 03:21:16;;;;;;;1.73;1.60;;;3.10;99.90;;;;;;4986373;28;20922;-62
2021/12/01 03:23:42;;;;;;;2.37;2.17;;;3.10;99.90;;;;;;4985663;28;20466;-62
2021/12/01 03:26:07;;;;;;;1.90;1.80;;;3.20;99.90;;;;;;4989463;28;20173;-61
2021/12/01 03:28:34;;;;;;;4.70;1.93;;;3.20;99.90;;;;;;4987415;28;20464;-61
2021/12/01 03:31:00;;;;;;;2.50;2.00;;;3.20;99.90;;;;;;4984227;28;20264;-62
2021/12/01 03:33:27;;;;;;;2.47;1.80;;;3.20;99.90;;;;;;4986522;28;20507;-62
2021/12/01 03:35:53;;;;;;;2.00;1.90;;;3.20;99.90;;;;;;4984331;28;20447;-62
2021/12/01 03:38:23;;;;;;;1.97;1.83;;;3.20;99.90;;;;;;4987135;28;20795;-60
2021/12/01 03:40:49;;;;;;;1.90;1.80;;;3.20;99.90;;;;;;4984586;28;20432;-61
2021/12/01 03:43:15;;;;;;;2.20;2.00;;;3.20;99.90;;;;;;4987831;28;20439;-62
2021/12/01 03:45:41;;;;;;;2.00;1.90;;;3.20;99.90;;;;;;4986609;28;20922;-62
2021/12/01 03:48:08;;;;;;;1.60;1.50;;;3.20;99.90;;;;;;4984515;28;20185;-63
2021/12/01 03:50:34;;;;;;;2.17;2.00;;;3.20;99.90;;;;;;4984619;28;20440;-62
2021/12/01 03:53:00;;;;;;;1.90;1.80;;;3.20;99.90;;;;;;4985777;28;20488;-61
2021/12/01 03:55:26;;;;;;;1.90;1.80;;;3.20;99.90;;;;;;4985206;28;20476;-62
2021/12/01 03:57:51;;;;;;;2.17;2.07;;;3.30;99.90;;;;;;4983178;28;20203;-63
2021/12/01 04:00:18;;;;;;;2.60;2.30;;;3.30;99.90;;;;;;4981831;28;20177;-62
2021/12/01 04:02:44;;;;;;;2.03;1.93;;;3.30;99.90;;;;;;4986426;28;20209;-62
2021/12/01 04:05:11;;;;;;;2.30;2.10;;;3.30;99.90;;;;;;4986983;28;20443;-63
2021/12/01 04:07:38;;;;;;;2.60;2.40;;;3.30;99.90;;;;;;4982279;28;20256;-64
2021/12/01 04:10:07;;;;;;;2.33;2.13;;;3.30;99.90;;;;;;4985353;28;20455;-61
2021/12/01 04:12:33;;;;;;;4.83;2.10;;;3.30;99.90;;;;;;4985773;28;20510;-63
2021/12/01 04:14:59;;;;;;;1.80;1.70;;;3.40;99.90;;;;;;4984879;28;20435;-62
2021/12/01 04:17:25;;;;;;;1.77;1.67;;;3.40;99.90;;;;;;4984041;28;20796;-61
2021/12/01 04:19:50;;;;;;;3.07;1.93;;;3.40;99.90;;;;;;4985894;28;20420;-63
2021/12/01 04:22:16;;;;;;;2.43;2.13;;;3.40;99.90;;;;;;4984570;28;20216;-62
2021/12/01 04:24:42;;;;;;;1.87;1.70;;;3.50;99.90;;;;;;4984274;28;20262;-61
2021/12/01 04:27:09;;;;;;;2.63;1.97;;;3.50;99.90;;;;;;4983424;28;20173;-61
2021/12/01 04:29:34;;;;;;;2.33;2.10;;;3.50;99.90;;;;;;4984377;28;20211;-61
2021/12/01 04:32:01;;;;;;;3.13;2.00;;;3.50;99.90;;;;;;4982861;28;20507;-60
2021/12/01 04:34:27;;;;;;;2.03;1.83;;;3.50;99.90;;;;;;4986182;28;20173;-61
2021/12/01 04:36:53;;;;;;;3.40;2.03;;;3.50;99.90;;;;;;4984766;28;20438;-62
2021/12/01 04:39:20;;;;;;;1.70;1.60;;;3.50;99.90;;;;;;4985754;28;20664;-62
2021/12/01 04:41:55;;;;;;;2.73;1.60;;;3.60;99.90;;;;;;4984787;28;20879;-60
2021/12/01 04:44:24;;;;;;;2.23;2.03;;;3.60;99.90;;;;;;4986086;28;20929;-62
2021/12/01 04:46:55;;;;;;;2.00;1.90;;;3.60;99.90;;;;;;4985767;28;20509;-62
2021/12/01 04:49:22;;;;;;;6.03;2.30;;;3.60;99.90;;;;;;4990121;28;20852;-61
2021/12/01 04:51:55;;;;;;;2.30;1.90;;;3.60;99.90;;;;;;4988422;28;20992;-62
2021/12/01 04:54:22;;;;;;;1.23;1.20;;;3.60;99.90;;;;;;4989647;28;20447;-57
2021/12/01 04:56:48;;;;;;;1.50;1.40;;;3.70;99.90;;;;;;4986456;28;20443;-62
2021/12/01 04:59:16;;;;;;;3.37;1.30;;;3.70;99.90;;;;;;4988635;28;20428;-62
2021/12/01 05:01:42;;;;;;;3.13;1.30;;;3.70;99.90;;;;;;4988570;28;20473;-62
2021/12/01 05:04:09;;;;;;;2.30;2.17;;;3.70;99.90;;;;;;4988989;28;20566;-62
2021/12/01 05:06:36;;;;;;;1.80;1.70;;;3.70;99.90;;;;;;4991169;28;20438;-61
2021/12/01 05:09:02;;;;;;;3.17;2.00;;;3.70;99.90;;;;;;4991038;28;20455;-62
2021/12/01 05:11:28;;;;;;;1.73;1.63;;;3.70;99.90;;;;;;4984755;28;20436;-61
2021/12/01 05:13:54;;;;;;;2.00;1.80;;;3.70;99.90;;;;;;4988325;28;20538;-62
2021/12/01 05:16:20;;;;;;;2.87;1.87;;;3.70;99.90;;;;;;4986529;28;20299;-61
2021/12/01 05:18:46;;;;;;;2.00;1.77;;;3.70;99.90;;;;;;4984124;28;21010;-62
2021/12/01 05:21:12;;;;;;;1.60;1.50;;;3.70;99.90;;;;;;4988071;28;20826;-62
2021/12/01 05:23:37;;;;;;;1.50;1.40;;;3.70;99.90;;;;;;4983538;28;20463;-62
2021/12/01 05:26:03;;;;;;;1.80;1.70;;;3.70;99.90;;;;;;4986827;28;20182;-62
2021/12/01 05:28:29;;;;;;;1.57;1.47;;;3.80;99.90;;;;;;4984901;28;20691;-62
2021/12/01 05:30:55;;;;;;;1.37;1.27;;;3.80;99.90;;;;;;4983971;28;20185;-62
2021/12/01 05:33:21;;;;;;;1.60;1.40;;;3.80;99.90;;;;;;4990126;28;20227;-62
2021/12/01 05:35:47;;;;;;;2.20;1.40;;;3.80;99.90;;;;;;4988035;28;20432;-62
2021/12/01 05:38:14;;;;;;;1.63;1.53;;;3.80;99.90;;;;;;4988550;28;20966;-61
2021/12/01 05:40:39;;;;;;;1.43;1.20;;;3.80;99.90;;;;;;4988784;28;20177;-62
2021/12/01 05:43:05;;;;;;;1.30;1.20;;;3.80;99.90;;;;;;4986230;28;20460;-60
2021/12/01 05:45:31;;;;;;;1.07;1.00;;;3.80;99.90;;;;;;4983465;28;20707;-61
2021/12/01 05:47:57;;;;;;;1.37;1.27;;;3.80;99.90;;;;;;4986974;28;20190;-59
2021/12/01 05:50:23;;;;;;;1.13;1.13;;;3.80;99.90;;;;;;4984656;28;21076;-62
2021/12/01 05:52:49;;;;;;;2.10;1.10;;;3.80;99.90;;;;;;4974949;28;20198;-60
2021/12/01 05:55:14;;;;;;;1.30;1.20;;;3.80;99.90;;;;;;4981010;28;20173;-58
2021/12/01 05:57:40;;;;;;;1.03;1.03;;;3.80;99.90;;;;;;4985482;28;20187;-61
2021/12/01 06:00:09;;;;;;;1.10;1.10;;;3.80;99.90;;;;;;4984670;28;20192;-60
2021/12/01 06:05:04;;;;;;;0.90;0.90;;;3.90;99.90;;;;;;5005278;28;20506;-59
2021/12/01 06:07:29;;;;;;;1.93;1.00;;;4.00;99.90;;;;;;5017482;28;20933;-62
2021/12/01 06:10:00;;;;;;;0.80;0.80;;;4.00;99.90;;;;;;5005952;28;20514;-58
2021/12/01 06:12:25;;;;;;;0.97;0.97;;;4.00;99.90;;;;;;5003769;28;20195;-60
2021/12/01 06:14:51;;;;;;;2.10;1.27;;;4.00;99.90;;;;;;5008532;28;20466;-59
2021/12/01 06:17:17;;;;;;;1.00;1.00;;;4.00;99.90;;;;;;5009232;28;20172;-58
2021/12/01 06:19:43;;;;;;;2.10;1.10;;;4.00;99.90;;;;;;5008762;28;20984;-58
2021/12/01 06:22:08;;;;;;;1.10;1.00;;;4.00;99.90;;;;;;5007634;28;20176;-57
2021/12/01 06:24:35;;;;;;;2.27;1.23;;;4.00;99.90;;;;;;5010376;28;20196;-59
2021/12/01 06:27:01;;;;;;;1.33;1.33;;;4.00;99.90;;;;;;5004360;28;20419;-60
2021/12/01 06:29:27;;;;;;;1.07;1.03;;;4.00;99.90;;;;;;5009007;28;21082;-59
2021/12/01 06:31:53;;;;;;;0.83;0.83;;;3.90;99.90;;;;;;5009362;28;20634;-57
2021/12/01 06:34:18;;;;;;;1.27;1.00;;;4.00;99.90;;;;;;5007214;28;20447;-59
2021/12/01 06:36:44;;;;;;;3.23;0.90;;;4.00;99.90;;;;;;5008361;28;20196;-58
2021/12/01 06:39:10;;;;;;;1.00;1.00;;;4.00;99.90;;;;;;5004035;28;20253;-60
2021/12/01 06:41:36;;;;;;;1.03;1.03;;;4.10;99.90;;;;;;5008583;28;20196;-58
2021/12/01 06:44:02;;;;;;;1.03;1.00;;;4.10;99.90;;;;;;5014706;28;20246;-60
2021/12/01 06:46:28;;;;;;;1.80;1.00;;;4.10;99.90;;;;;;5027432;28;20431;-60
2021/12/01 06:48:56;;;;;;;0.83;0.83;;;4.10;99.90;;;;;;5013436;28;20471;-61
2021/12/01 06:51:22;;;;;;;1.10;1.07;;;4.10;99.90;;;;;;5007645;28;20457;-59
2021/12/01 06:53:47;;;;;;;1.27;1.17;;;4.20;99.90;;;;;;5007875;28;20439;-60
2021/12/01 06:56:15;;;;;;;1.53;1.00;;;4.20;99.90;;;;;;5007584;28;20543;-60
2021/12/01 06:58:41;;;;;;;1.30;1.10;;;4.20;99.90;;;;;;4999859;28;20208;-61
2021/12/01 07:01:07;;;;;;;1.00;1.00;;;4.20;99.90;;;;;;5002010;28;21015;-60
2021/12/01 07:03:34;;;;;;;1.27;0.87;;;4.20;99.90;;;;;;5007884;28;20452;-60
2021/12/01 07:06:00;;;;;;;0.97;0.97;;;4.20;99.90;;;;;;5006842;28;20439;-59
2021/12/01 07:08:26;;;;;;;0.80;0.80;;;4.30;99.90;;;;;;5007383;28;20513;-59
2021/12/01 07:10:52;;;;;;;1.20;1.10;;;4.30;99.90;;;;;;5004124;28;20717;-59
2021/12/01 07:13:18;;;;;;;1.13;1.03;;;4.30;99.90;;;;;;5010876;28;20196;-59
2021/12/01 07:15:44;;;;;;;0.87;0.80;;;4.30;99.90;;;;;;5008417;28;20407;-59
2021/12/01 07:18:09;;;;;;;0.90;0.90;;;4.30;99.90;;;;;;5004209;28;20651;-61
2021/12/01 07:20:35;;;;;;;1.30;0.97;;;4.30;99.90;;;;;;5006866;28;20889;-60
2021/12/01 07:23:02;;;;;;;1.30;1.20;;;4.40;99.90;;;;;;5004180;28;20207;-61
2021/12/01 07:25:29;;;;;;;1.43;1.20;;;4.40;99.90;;;;;;5003047;28;20429;-60
2021/12/01 07:27:55;;;;;;;1.17;0.90;;;4.40;99.90;;;;;;4988891;28;20480;-59
2021/12/01 07:30:21;;;;;;;1.10;1.07;;;4.40;99.90;;;;;;4988757;28;20456;-59
2021/12/01 07:32:48;;;;;;;1.27;1.27;;;4.50;99.90;;;;;;5007025;28;20207;-60
2021/12/01 07:35:14;;;;;;;1.30;1.10;;;4.50;99.90;;;;;;5006676;28;20173;-59
2021/12/01 07:37:40;;;;;;;4.63;1.20;;;4.50;99.90;;;;;;5008876;28;20427;-60
2021/12/01 07:40:06;;;;;;;1.57;1.43;;;4.50;99.90;;;;;;5007940;28;20177;-61
2021/12/01 07:42:32;;;;;;;1.90;1.30;;;4.50;99.90;;;;;;5007367;28;20238;-61
2021/12/01 07:44:58;;;;;;;1.77;1.10;;;4.60;99.90;;;;;;5007793;28;20941;-59
2021/12/01 07:47:24;;;;;;;0.87;0.87;;;4.60;99.90;;;;;;5008021;28;20229;-59
2021/12/01 07:49:50;;;;;;;2.07;1.27;;;4.60;99.90;;;;;;5006534;28;20192;-60
2021/12/01 07:52:15;;;;;;;1.13;1.03;;;4.60;99.90;;;;;;5004893;28;20176;-60
2021/12/01 07:54:41;;;;;;;2.10;0.93;;;4.70;99.90;;;;;;5007972;28;20435;-60
2021/12/01 07:57:08;;;;;;;1.37;1.27;;;4.70;99.90;;;;;;5007695;28;20176;-60
2021/12/01 07:59:34;;;;;;;1.63;1.20;;;4.70;99.90;;;;;;5012408;28;20168;-60
2021/12/01 08:02:00;;;;;;;1.40;1.30;;;4.70;99.90;;;;;;4987735;28;21091;-59
2021/12/01 08:04:26;;;;;;;1.50;1.40;;;4.70;99.90;;;;;;4987592;28;20465;-59
2021/12/01 08:06:52;;;;;;;1.50;1.30;;;4.70;99.90;;;;;;4994389;28;20232;-57
2021/12/01 08:09:18;;;;;;;1.37;1.27;;;4.70;99.90;;;;;;5001232;28;20248;-59
2021/12/01 08:11:44;;;;;;;2.30;1.23;;;4.70;99.90;;;;;;5006400;28;20423;-61
2021/12/01 08:14:09;;;;;;;3.80;1.77;;;4.80;99.90;;;;;;4999541;28;20237;-59
2021/12/01 08:16:36;;;;;;;1.90;1.80;;;4.90;99.90;;;;;;5015190;28;20654;-62
2021/12/01 08:19:02;;;;;;;2.10;1.80;;;4.90;99.90;;;;;;5003550;28;20176;-59
2021/12/01 08:21:28;;;;;;;9.60;1.90;;;4.90;99.90;;;;;;5005802;28;20439;-60
2021/12/01 08:23:54;;;;;;;5.20;1.70;;;4.90;99.90;;;;;;5005570;28;20474;-60
2021/12/01 08:26:21;;;;;;;2.57;1.80;;;4.90;99.90;;;;;;5001808;28;20191;-59
2021/12/01 08:28:48;;;;;;;1.60;1.43;;;4.90;99.90;;;;;;5006794;28;20223;-60
2021/12/01 08:31:16;;;;;;;3.23;1.87;;;4.90;99.90;;;;;;5005630;28;20988;-59
2021/12/01 08:33:42;;;;;;;5.83;2.40;;;4.90;99.90;;;;;;5006685;28;20716;-59
2021/12/01 08:36:12;;;;;;;3.10;2.80;;;4.90;99.90;;;;;;5003486;28;20459;-59
2021/12/01 08:38:39;;;;;;;3.73;3.00;;;4.90;99.90;;;;;;5003912;28;20446;-62
2021/12/01 08:41:06;;;;;;;4.57;3.00;;;4.90;99.90;;;;;;5004852;28;20420;-59
2021/12/01 08:43:33;;;;;;;4.40;3.40;;;5.00;99.90;;;;;;4993546;28;20982;-62
2021/12/01 08:46:00;;;;;;;8.00;3.97;;;5.00;99.90;;;;;;4999523;28;21000;-60
2021/12/01 08:48:26;;;;;;;6.27;4.47;;;4.90;99.90;;;;;;5007942;28;20481;-60
2021/12/01 08:50:52;;;;;;;6.47;5.60;;;4.90;99.90;;;;;;5007184;28;20890;-60
2021/12/01 08:53:18;;;;;;;6.40;4.03;;;4.80;99.90;;;;;;5007361;28;20539;-61
2021/12/01 08:55:45;;;;;;;10.53;4.60;;;4.80;99.90;;;;;;5005246;28;20521;-60
2021/12/01 08:58:13;;;;;;;7.60;5.27;;;4.80;99.90;;;;;;5006280;28;20176;-60
2021/12/01 09:00:44;;;;;;;7.57;5.27;;;4.80;99.90;;;;;;5005704;28;20954;-59
2021/12/01 09:03:15;;;;;;;5.77;4.67;;;4.90;99.90;;;;;;5005530;28;20474;-60
2021/12/01 09:05:42;;;;;;;5.80;4.90;;;4.80;99.90;;;;;;5007017;28;20418;-60
2021/12/01 09:08:09;;;;;;;7.00;5.27;;;4.80;99.90;;;;;;4998811;28;20830;-60
2021/12/01 09:10:35;;;;;;;6.40;5.07;;;4.90;99.90;;;;;;5000910;28;20430;-60
2021/12/01 09:13:03;;;;;;;9.60;6.17;;;4.80;99.90;;;;;;5004844;28;20474;-60
2021/12/01 09:15:29;;;;;;;9.17;6.30;;;4.80;99.90;;;;;;5001870;28;20403;-59
2021/12/01 09:17:55;;;;;;;8.30;5.60;;;4.70;99.90;;;;;;5004436;28;20415;-60
2021/12/01 09:20:21;;;;;;;8.70;6.23;;;4.70;99.90;;;;;;5002580;28;20544;-60
2021/12/01 09:22:47;;;;;;;6.20;4.90;;;4.70;99.90;;;;;;5009463;28;20423;-61
2021/12/01 09:25:13;;;;;;;7.50;5.30;;;4.70;99.90;;;;;;5007264;28;20175;-58
2021/12/01 09:27:38;;;;;;;8.63;6.00;;;4.70;99.90;;;;;;5008275;28;20176;-60
2021/12/01 09:30:06;;;;;;;8.63;5.30;;;4.70;99.90;;;;;;5008376;28;20458;-59
2021/12/01 09:32:35;;;;;;;4.70;4.20;;;4.70;99.90;;;;;;5005306;28;20537;-60
2021/12/01 09:35:01;;;;;;;5.03;4.03;;;4.70;99.90;;;;;;5008703;28;20426;-60
2021/12/01 09:37:27;;;;;;;6.47;4.77;;;4.70;99.90;;;;;;5009994;28;20441;-59
2021/12/01 09:39:54;;;;;;;8.13;4.70;;;4.70;99.90;;;;;;5008460;28;20438;-62
2021/12/01 09:42:20;;;;;;;6.97;4.77;;;4.70;99.90;;;;;;5010479;28;20411;-60
2021/12/01 09:44:46;;;;;;;4.83;4.33;;;4.60;99.90;;;;;;5010350;28;20803;-60
2021/12/01 09:47:13;;;;;;;4.87;4.33;;;4.60;99.90;;;;;;5028704;28;20458;-64
2021/12/01 09:49:39;;;;;;;6.10;4.70;;;4.60;99.90;;;;;;5032011;28;20498;-62
2021/12/01 09:52:05;;;;;;;6.63;4.97;;;4.60;99.90;;;;;;5030063;28;20459;-62
2021/12/01 09:54:30;;;;;;;8.03;5.20;;;4.60;99.90;;;;;;5028771;28;20454;-62
2021/12/01 09:56:56;;;;;;;7.67;4.40;;;4.60;99.90;;;;;;5032310;28;20437;-64
2021/12/01 09:59:22;;;;;;;6.30;4.67;;;4.60;99.90;;;;;;5039228;28;20185;-61
2021/12/01 10:01:48;;;;;;;6.00;4.40;;;4.60;99.90;;;;;;5028747;28;20188;-62
2021/12/01 10:04:13;;;;;;;5.60;4.33;;;4.60;99.90;;;;;;5023603;28;20483;-61
2021/12/01 10:06:39;;;;;;;5.40;3.67;;;4.60;99.90;;;;;;5022933;28;20180;-60
2021/12/01 10:09:08;;;;;;;4.63;3.97;;;4.60;99.90;;;;;;5026606;28;20193;-62
2021/12/01 10:11:36;;;;;;;4.80;4.20;;;4.70;99.90;;;;;;5026687;28;20179;-62
2021/12/01 10:14:20;;;;;;;4.87;4.37;;;4.80;99.90;;;;;;5029763;28;20538;-60
2021/12/01 10:16:51;;;;;;;5.00;3.57;;;4.80;99.90;;;;;;5021871;28;20498;-60
2021/12/01 10:19:17;;;;;;;10.50;4.90;;;4.80;99.90;;;;;;5031489;28;20495;-64
2021/12/01 10:21:49;;;;;;;7.07;4.50;;;4.80;99.90;;;;;;5022407;28;20444;-63
2021/12/01 10:24:17;;;;;;;8.63;4.97;;;4.80;99.90;;;;;;5024725;28;20474;-66
2021/12/01 10:26:45;;;;;;;5.67;4.40;;;4.80;99.90;;;;;;5032753;28;20403;-63
2021/12/01 10:29:14;;;;;;;5.90;4.60;;;4.70;99.90;;;;;;5025643;28;20463;-63
2021/12/01 10:31:45;;;;;;;8.00;5.27;;;4.80;99.90;;;;;;5040518;28;20420;-63
2021/12/01 10:34:22;;;;;;;6.13;4.90;;;4.80;99.90;;;;;;5024171;28;20439;-59
2021/12/01 10:36:51;;;;;;;10.70;4.70;;;4.80;99.90;;;;;;5027877;28;20441;-61
2021/12/01 10:39:17;;;;;;;9.47;5.17;;;4.80;99.90;;;;;;5023229;28;20461;-63
2021/12/01 10:41:43;;;;;;;5.20;4.27;;;4.80;99.90;;;;;;5029888;28;20431;-63
2021/12/01 10:44:15;;;;;;;4.93;4.03;;;4.80;99.90;;;;;;5031854;28;20447;-64
2021/12/01 10:46:50;;;;;;;7.37;5.03;;;4.90;99.90;;;;;;5031796;28;20391;-63
2021/12/01 10:49:17;;;;;;;5.30;4.50;;;4.90;99.90;;;;;;5045237;28;20815;-64
2021/12/01 10:51:45;;;;;;;8.50;5.27;;;4.90;99.90;;;;;;5030069;28;20411;-64
2021/12/01 10:54:19;;;;;;;5.10;4.13;;;5.00;99.90;;;;;;5033442;28;20444;-66
2021/12/01 10:56:46;;;;;;;4.70;3.53;;;5.00;99.90;;;;;;5026969;28;20519;-64
2021/12/01 10:59:14;;;;;;;6.17;3.67;;;5.10;99.90;;;;;;5030394;28;20415;-62
2021/12/01 11:01:40;;;;;;;5.27;3.77;;;5.10;99.90;;;;;;5038543;28;20443;-63
2021/12/01 11:04:06;;;;;;;5.07;3.70;;;5.20;99.90;;;;;;5031795;28;20447;-62
2021/12/01 11:06:39;;;;;;;7.43;3.77;;;5.30;99.90;;;;;;5022623;28;20428;-64
2021/12/01 11:09:05;;;;;;;6.73;4.27;;;5.40;99.90;;;;;;5028208;28;20515;-61
2021/12/01 11:11:42;;;;;;;4.27;3.33;;;5.40;99.90;;;;;;5028919;28;20423;-62
2021/12/01 11:14:14;;;;;;;5.13;3.77;;;5.50;99.90;;;;;;5026228;28;20193;-59
2021/12/01 11:16:42;;;;;;;3.80;3.10;;;5.50;99.90;;;;;;5015257;28;20519;-56
2021/12/01 11:19:09;;;;;;;6.13;3.47;;;5.60;99.90;;;;;;5007332;28;20419;-57
2021/12/01 11:21:35;;;;;;;4.43;3.10;;;5.60;99.90;;;;;;4989028;28;20430;-57
2021/12/01 11:24:09;;;;;;;4.30;2.87;;;5.60;99.90;;;;;;4988425;28;20437;-57
2021/12/01 11:26:36;;;;;;;2.80;2.20;;;5.70;99.90;;;;;;5006375;28;20446;-55
2021/12/01 11:29:05;;;;;;;6.37;3.37;;;5.70;99.90;;;;;;5007904;28;20477;-57
2021/12/01 11:31:34;;;;;;;4.00;2.80;;;5.70;99.90;;;;;;5007922;28;20427;-58
2021/12/01 11:34:03;;;;;;;3.70;3.00;;;5.80;99.90;;;;;;5009384;28;20435;-58
2021/12/01 11:36:40;;;;;;;3.03;2.67;;;5.80;99.90;;;;;;5007541;28;20442;-56
2021/12/01 11:39:10;;;;;;;4.33;2.70;;;5.80;99.90;;;;;;5007584;28;20437;-57
2021/12/01 11:41:42;;;;;;;3.07;2.70;;;5.80;99.90;;;;;;5004995;28;20519;-58
2021/12/01 11:44:10;;;;;;;3.67;3.23;;;5.90;99.90;;;;;;5000539;28;20908;-57
2021/12/01 11:46:36;;;;;;;4.90;2.87;;;5.90;99.90;;;;;;5001954;28;20444;-58
2021/12/01 11:49:11;;;;;;;4.00;3.27;;;6.00;99.90;;;;;;5006413;28;20827;-56
2021/12/01 11:51:44;;;;;;;3.13;2.83;;;6.00;99.90;;;;;;4999019;28;20450;-55
2021/12/01 11:54:15;;;;;;;4.30;3.30;;;6.10;99.90;;;;;;5006401;28;20452;-57
2021/12/01 11:56:55;;;;;;;4.17;3.47;;;6.10;99.90;;;;;;5007098;28;20428;-57
2021/12/01 11:59:38;;;;;;;3.50;3.00;;;6.10;99.90;;;;;;5004663;28;20784;-54
2021/12/01 12:02:16;;;;;;;4.40;3.40;;;6.10;99.90;;;;;;5002293;28;20453;-57
2021/12/01 12:04:47;;;;;;;4.97;2.90;;;6.10;99.90;;;;;;5027466;22;20584;-58
2021/12/01 12:07:30;;;;;;;3.13;2.60;;;6.10;99.90;;;;;;5008030;28;20415;-58
2021/12/01 12:10:10;;;;;;;2.63;2.40;;;6.10;99.90;;;;;;5006111;28;20458;-60
2021/12/01 12:12:49;;;;;;;2.70;2.37;;;6.20;99.90;;;;;;5001512;28;20450;-58
2021/12/01 12:15:40;;;;;;;2.17;1.97;;;6.30;99.90;;;;;;5001769;28;20463;-59
2021/12/01 12:18:07;;;;;;;2.70;2.27;;;6.30;99.90;;;;;;4992364;28;20548;-58
2021/12/01 12:20:52;;;;;;;3.60;1.73;;;6.40;99.90;;;;;;5012252;28;20418;-60
2021/12/01 12:23:20;;;;;;;4.30;2.23;;;6.40;99.90;;;;;;5004154;28;20427;-57
2021/12/01 12:25:54;;;;;;;3.33;2.53;;;6.40;99.90;;;;;;5007381;28;20415;-60
2021/12/01 12:28:36;;;;;;;4.10;2.63;;;6.40;99.90;;;;;;5011541;28;20817;-59
2021/12/01 12:31:20;;;;;;;2.77;2.30;;;6.40;99.90;;;;;;5006531;28;20419;-61
2021/12/01 12:33:55;;;;;;;4.40;2.00;;;6.40;99.90;;;;;;5008639;28;20877;-59
2021/12/01 12:36:49;;;;;;;2.60;1.90;;;6.40;99.90;;;;;;5006510;28;20420;-61
2021/12/01 12:39:16;;;;;;;2.30;2.10;;;6.40;99.90;;;;;;4996798;28;20421;-59
2021/12/01 12:42:08;;;;;;;4.53;2.20;;;6.50;99.90;;;;;;4993469;28;20764;-60
2021/12/01 12:44:41;;;;;;;2.30;1.97;;;6.50;99.90;;;;;;5004085;28;20847;-59
2021/12/01 12:47:16;;;;;;;2.30;2.07;;;6.40;99.90;;;;;;5000246;28;20517;-59
2021/12/01 12:49:47;;;;;;;1.70;1.60;;;6.40;99.90;;;;;;5009633;28;20732;-60
2021/12/01 12:52:25;;;;;;;2.13;1.83;;;6.40;99.90;;;;;;5006210;28;20435;-60
2021/12/01 12:55:30;;;;;;;3.93;1.87;;;6.40;99.90;;;;;;5005284;28;20445;-59
2021/12/01 12:58:07;;;;;;;1.80;1.70;;;6.40;99.90;;;;;;4995417;28;20441;-59
2021/12/01 13:00:50;;;;;;;2.00;1.80;;;6.40;99.90;;;;;;5011536;28;20813;-60
2021/12/01 13:03:26;;;;;;;3.23;2.17;;;6.40;99.90;;;;;;5003076;28;20581;-59
2021/12/01 13:06:00;;;;;;;2.63;1.70;;;6.40;99.90;;;;;;5005210;28;21063;-62
2021/12/01 13:08:34;;;;;;;1.97;1.87;;;6.40;99.90;;;;;;5007131;28;20470;-61
2021/12/01 13:11:20;;;;;;;3.00;1.83;;;6.50;99.90;;;;;;5008808;28;20481;-60
2021/12/01 13:13:48;;;;;;;1.77;1.67;;;6.60;99.90;;;;;;5009367;28;20872;-63